Terminal Aerodrome Forecast
Issued by NWS Sterling, VA

Current Version | Previous Version | Text Only | Print | Product List | Glossary Off
Versions: 1 2 3 4 5 6 7 8 9 10 11 12 13 14 15 16 17 18 19

000
FTUS41 KLWX 152336
TAFMRB
TAF
KMRB 152336Z 1600/1624 18004KT P6SM BKN050 OVC100
     FM160200 20011KT 3SM -SHRA OVC030
     FM160600 23009KT 6SM -SHRA OVC050
     FM161400 29010KT 6SM -SHRA OVC025
     FM161800 30012G19KT 6SM -SHRA OVC035=

USA.gov is the U.S. government's official web portal to all federal, state and local government web resources and services.